createdAt,value
2019-04-27T00:00:45.692Z,73.57
2019-04-27T00:03:35.002Z,77.90
2019-04-27T00:06:06.394Z,74.97
2019-04-27T00:08:39.057Z,75.30
2019-04-27T00:11:23.000Z,70.40
2019-04-27T00:13:53.588Z,71.15
2019-04-27T00:16:44.518Z,71.17
2019-04-27T00:19:21.244Z,72.55
2019-04-27T00:21:53.872Z,73.92
2019-04-27T00:24:23.569Z,75.17
2019-04-27T00:26:53.940Z,73.95
2019-04-27T00:29:23.626Z,73.83
2019-04-27T00:32:13.206Z,76.62
2019-04-27T00:34:43.151Z,71.70
2019-04-27T00:37:29.940Z,70.80
2019-04-27T00:40:00.018Z,70.15
2019-04-27T00:42:28.453Z,70.40
2019-04-27T00:44:57.247Z,72.40
2019-04-27T00:47:25.667Z,70.75
2019-04-27T00:49:55.020Z,69.70
2019-04-27T00:52:24.108Z,72.50
2019-04-27T00:54:53.931Z,71.37
2019-04-27T00:57:40.670Z,68.60
2019-04-27T01:00:27.462Z,69.15
2019-04-27T01:02:57.827Z,67.20
2019-04-27T01:05:27.754Z,65.37
2019-04-27T01:07:56.195Z,68.90
2019-04-27T01:10:25.010Z,66.33
2019-04-27T01:12:53.766Z,67.27
2019-04-27T01:15:23.812Z,66.30
2019-04-27T01:17:52.675Z,71.53
2019-04-27T01:20:21.189Z,69.35
2019-04-27T01:22:49.956Z,69.67
2019-04-27T01:25:19.026Z,72.37
2019-04-27T01:28:05.678Z,70.32
2019-04-27T01:30:36.005Z,67.72
2019-04-27T01:33:04.596Z,70.47
2019-04-27T01:35:33.371Z,70.37
2019-04-27T01:38:01.799Z,72.12
2019-04-27T01:40:30.234Z,69.75
2019-04-27T01:42:58.971Z,68.97
2019-04-27T01:45:29.021Z,71.62
2019-04-27T01:47:59.456Z,69.03
2019-04-27T01:50:29.001Z,73.90
2019-04-27T01:52:58.773Z,72.67
2019-04-27T01:55:27.698Z,71.72
2019-04-27T01:57:56.116Z,75.87
2019-04-27T02:00:53.036Z,74.80
2019-04-27T02:03:38.787Z,75.87
2019-04-27T02:06:09.122Z,77.10
2019-04-27T02:08:37.658Z,78.42
2019-04-27T02:11:06.091Z,79.03
2019-04-27T02:13:34.879Z,80.10
2019-04-27T02:16:03.581Z,81.30
2019-04-27T02:18:37.416Z,80.75
2019-04-27T02:21:02.529Z,80.00
2019-04-27T02:23:31.281Z,79.00
2019-04-27T02:25:59.711Z,78.95
2019-04-27T02:28:46.087Z,79.05
2019-04-27T02:31:16.490Z,81.65
2019-04-27T02:33:55.922Z,78.37
2019-04-27T02:36:24.622Z,82.62
2019-04-27T02:38:55.352Z,80.15
2019-04-27T02:41:23.770Z,80.90
2019-04-27T02:43:59.539Z,78.65
2019-04-27T02:46:29.482Z,80.22
2019-04-27T02:49:03.551Z,80.75
2019-04-27T02:51:32.328Z,81.20
2019-04-27T02:54:01.737Z,84.30
2019-04-27T02:56:30.822Z,83.25
2019-04-27T02:58:59.644Z,81.12
2019-04-27T03:01:30.722Z,79.53
2019-04-27T03:04:00.207Z,79.37
2019-04-27T03:06:30.030Z,78.07
2019-04-27T03:09:00.539Z,78.78
2019-04-27T03:11:30.662Z,78.07
2019-04-27T03:14:31.705Z,78.28
2019-04-27T03:16:49.703Z,75.85
2019-04-27T03:19:39.803Z,76.77
2019-04-27T03:22:13.195Z,76.67
2019-04-27T03:24:59.991Z,76.47
2019-04-27T03:27:33.381Z,72.45
2019-04-27T03:30:02.142Z,73.50
2019-04-27T03:32:31.684Z,75.90
2019-04-27T03:35:06.842Z,75.52
2019-04-27T03:37:35.612Z,76.82
2019-04-27T03:40:10.357Z,74.82
2019-04-27T03:42:41.075Z,73.40
2019-04-27T03:45:14.367Z,74.25
2019-04-27T03:47:42.811Z,73.42
2019-04-27T03:50:13.451Z,74.40
2019-04-27T03:53:00.108Z,78.45
2019-04-27T03:55:42.870Z,77.30
2019-04-27T03:58:13.177Z,76.57
2019-04-27T04:00:42.573Z,75.47
2019-04-27T04:03:11.052Z,76.75
2019-04-27T04:05:39.998Z,75.30
2019-04-27T04:08:11.041Z,78.10
2019-04-27T04:10:50.403Z,74.37
2019-04-27T04:13:22.651Z,77.32
2019-04-27T04:15:55.523Z,74.97
2019-04-27T04:18:25.451Z,74.40
2019-04-27T04:20:54.174Z,76.05
2019-04-27T04:23:22.995Z,75.57
2019-04-27T04:25:51.454Z,75.47
2019-04-27T04:28:20.284Z,74.82
2019-04-27T04:30:50.129Z,77.35
2019-04-27T04:33:20.599Z,75.60
2019-04-27T04:35:49.898Z,73.95
2019-04-27T04:38:20.560Z,75.10
2019-04-27T04:40:50.647Z,72.87
2019-04-27T04:43:26.665Z,75.05
2019-04-27T04:45:59.611Z,75.78
2019-04-27T04:48:30.244Z,76.40
2019-04-27T04:50:59.916Z,77.58
2019-04-27T04:53:29.310Z,71.82
2019-04-27T04:56:00.073Z,72.67
2019-04-27T04:58:29.406Z,72.22
2019-04-27T05:00:59.616Z,74.65
2019-04-27T05:03:28.679Z,73.25
2019-04-27T05:05:58.774Z,72.10
2019-04-27T05:08:29.121Z,65.42
2019-04-27T05:10:59.504Z,60.67
2019-04-27T05:13:29.330Z,53.13
2019-04-27T05:15:58.921Z,47.30
2019-04-27T05:18:29.134Z,44.10
2019-04-27T05:21:02.049Z,43.33
2019-04-27T05:23:35.919Z,41.37
2019-04-27T05:26:05.260Z,41.73
2019-04-27T05:28:33.700Z,40.98
2019-04-27T05:31:02.128Z,41.42
2019-04-27T05:34:25.736Z,39.00
2019-04-27T05:36:55.100Z,37.15
2019-04-27T05:39:24.898Z,36.73
2019-04-27T05:41:54.055Z,33.70
2019-04-27T05:44:24.135Z,36.25
2019-04-27T05:47:05.319Z,33.60
2019-04-27T05:49:41.129Z,34.27
2019-04-27T05:52:14.653Z,33.92
2019-04-27T05:54:40.948Z,32.90
2019-04-27T05:57:09.586Z,33.98
2019-04-27T05:59:39.668Z,34.40
2019-04-27T06:02:09.376Z,35.40
2019-04-27T06:04:39.053Z,31.42
2019-04-27T06:07:09.201Z,30.48
2019-04-27T06:09:39.131Z,29.50
2019-04-27T06:12:08.971Z,30.35
2019-04-27T06:14:39.237Z,28.98
2019-04-27T06:17:09.327Z,29.32
2019-04-27T06:19:39.959Z,27.98
2019-04-27T06:22:09.713Z,27.62
2019-04-27T06:24:39.771Z,26.02
2019-04-27T06:27:09.382Z,25.68
2019-04-27T06:29:40.583Z,27.62
2019-04-27T06:32:08.999Z,24.90
2019-04-27T06:34:39.042Z,25.00
2019-04-27T06:37:09.448Z,25.15
2019-04-27T06:39:38.677Z,23.73
2019-04-27T06:42:16.779Z,24.18
2019-04-27T06:44:39.387Z,23.87
2019-04-27T06:47:09.099Z,22.67
2019-04-27T06:49:39.492Z,23.70
2019-04-27T06:52:08.681Z,22.20
2019-04-27T06:54:38.844Z,22.25
2019-04-27T06:57:09.190Z,21.05
2019-04-27T06:59:37.775Z,19.50
2019-04-27T07:02:06.222Z,20.08
2019-04-27T07:04:34.963Z,21.10
2019-04-27T07:07:03.758Z,19.92
2019-04-27T07:09:32.588Z,19.80
2019-04-27T07:12:01.032Z,20.95
2019-04-27T07:14:30.643Z,19.67
2019-04-27T07:16:59.306Z,19.15
2019-04-27T07:19:29.056Z,20.35
2019-04-27T07:21:59.457Z,19.17
2019-04-27T07:24:29.214Z,19.05
2019-04-27T07:26:59.577Z,18.90
2019-04-27T07:29:29.282Z,19.32
2019-04-27T07:31:59.653Z,18.95
2019-04-27T07:34:29.053Z,19.60
2019-04-27T07:36:59.727Z,19.45
2019-04-27T07:39:29.395Z,18.70
2019-04-27T07:41:58.579Z,18.02
2019-04-27T07:44:44.167Z,16.87
2019-04-27T07:47:23.625Z,16.12
2019-04-27T07:49:52.551Z,14.68
2019-04-27T07:52:21.523Z,14.30
2019-04-27T07:54:50.251Z,14.38
2019-04-27T07:57:19.760Z,13.98
2019-04-27T07:59:50.121Z,13.78
2019-04-27T08:02:18.976Z,14.18
2019-04-27T08:04:50.318Z,13.70
2019-04-27T08:07:19.714Z,13.53
2019-04-27T08:09:49.656Z,12.30
2019-04-27T08:12:20.728Z,12.37
2019-04-27T08:14:49.167Z,12.30
2019-04-27T08:17:19.128Z,13.08
2019-04-27T08:19:49.545Z,12.20
2019-04-27T08:22:19.456Z,10.78
2019-04-27T08:24:49.625Z,11.60
2019-04-27T08:27:29.480Z,11.63
2019-04-27T08:30:02.485Z,11.05
2019-04-27T08:32:32.563Z,11.53
2019-04-27T08:35:01.003Z,11.70
2019-04-27T08:37:29.764Z,11.63
2019-04-27T08:39:59.222Z,11.48
2019-04-27T08:42:29.401Z,10.58
2019-04-27T08:44:59.450Z,9.65
2019-04-27T08:47:29.348Z,9.53
2019-04-27T08:49:59.145Z,9.45
2019-04-27T08:52:29.005Z,9.43
2019-04-27T08:54:59.284Z,7.45
2019-04-27T08:57:28.985Z,6.60
2019-04-27T08:59:59.517Z,5.95
2019-04-27T09:02:41.147Z,6.30
2019-04-27T09:04:59.629Z,7.45
2019-04-27T09:07:41.984Z,7.62
2019-04-27T09:10:15.683Z,6.83
2019-04-27T09:12:50.116Z,7.12
2019-04-27T09:15:36.602Z,7.20
2019-04-27T09:18:05.496Z,6.45
2019-04-27T09:20:51.391Z,7.40
2019-04-27T09:23:20.072Z,6.75
2019-04-27T09:25:49.623Z,5.37
2019-04-27T09:28:21.560Z,7.12
2019-04-27T09:30:49.800Z,6.90
2019-04-27T09:33:38.056Z,6.20
2019-04-27T09:36:06.486Z,7.12
2019-04-27T09:38:35.802Z,6.67
2019-04-27T09:41:04.439Z,6.78
2019-04-27T09:43:32.878Z,6.08
2019-04-27T09:46:20.644Z,6.37
2019-04-27T09:48:49.087Z,6.35
2019-04-27T09:51:17.570Z,5.72
2019-04-27T09:53:46.308Z,5.00
2019-04-27T09:56:16.386Z,5.28
2019-04-27T09:58:46.991Z,5.40
2019-04-27T10:01:17.920Z,4.70
2019-04-27T10:03:46.468Z,4.60
2019-04-27T10:06:16.322Z,4.00
2019-04-27T10:08:44.875Z,4.12
2019-04-27T10:11:13.323Z,4.55
2019-04-27T10:13:41.768Z,4.62
2019-04-27T10:16:10.246Z,5.53
2019-04-27T10:18:39.044Z,5.53
2019-04-27T10:21:07.739Z,5.78
2019-04-27T10:23:38.398Z,4.72
2019-04-27T10:26:06.664Z,4.62
2019-04-27T10:28:35.451Z,4.80
2019-04-27T10:31:07.060Z,4.75
2019-04-27T10:33:35.940Z,4.22
2019-04-27T10:36:06.335Z,3.45
2019-04-27T10:38:36.008Z,4.12
2019-04-27T10:41:23.971Z,3.70
2019-04-27T10:43:52.403Z,3.40
2019-04-27T10:46:21.132Z,2.92
2019-04-27T10:48:49.823Z,2.65
2019-04-27T10:51:18.259Z,2.75
2019-04-27T10:53:46.675Z,2.90
2019-04-27T10:56:16.047Z,3.20
2019-04-27T10:58:45.695Z,3.80
2019-04-27T11:01:15.628Z,3.30
2019-04-27T11:03:51.787Z,3.90
2019-04-27T11:06:31.428Z,3.47
2019-04-27T11:08:59.852Z,3.90
2019-04-27T11:11:28.284Z,4.30
2019-04-27T11:13:58.231Z,3.20
2019-04-27T11:16:27.216Z,3.45
2019-04-27T11:18:56.142Z,3.80
2019-04-27T11:21:26.241Z,4.33
2019-04-27T11:23:55.951Z,4.08
2019-04-27T11:26:26.317Z,4.20
2019-04-27T11:28:55.019Z,4.53
2019-04-27T11:31:23.439Z,4.10
2019-04-27T11:33:52.851Z,3.52
2019-04-27T11:36:23.179Z,3.08
2019-04-27T11:39:07.223Z,3.30
2019-04-27T11:41:35.630Z,3.72
2019-04-27T11:44:04.223Z,3.60
2019-04-27T11:46:33.011Z,3.52
2019-04-27T11:49:01.437Z,3.27
2019-04-27T11:51:29.892Z,3.20
2019-04-27T11:53:58.315Z,3.22
2019-04-27T11:56:27.426Z,3.75
2019-04-27T11:58:56.137Z,3.37
2019-04-27T12:01:24.668Z,3.30
2019-04-27T12:03:53.404Z,2.80
2019-04-27T12:06:21.827Z,2.50
2019-04-27T12:08:50.264Z,2.65
2019-04-27T12:11:18.686Z,2.72
2019-04-27T12:13:47.123Z,2.75
2019-04-27T12:16:17.612Z,3.27
2019-04-27T12:18:48.876Z,3.05
2019-04-27T12:21:16.720Z,3.22
2019-04-27T12:23:47.060Z,3.40
2019-04-27T12:26:17.241Z,2.15
2019-04-27T12:28:50.439Z,2.10
2019-04-27T12:31:27.012Z,2.05
2019-04-27T12:33:56.100Z,1.70
2019-04-27T12:36:25.822Z,1.62
2019-04-27T12:38:56.536Z,1.80
2019-04-27T12:41:25.143Z,1.80
2019-04-27T12:43:53.833Z,2.22
2019-04-27T12:46:22.274Z,2.10
2019-04-27T12:48:50.688Z,2.08
2019-04-27T12:51:20.968Z,2.27
2019-04-27T12:54:03.444Z,1.90
2019-04-27T12:56:33.512Z,2.00
2019-04-27T12:59:20.152Z,1.87
2019-04-27T13:01:48.651Z,2.00
2019-04-27T13:04:17.434Z,1.75
2019-04-27T13:06:47.015Z,1.80
2019-04-27T13:09:17.362Z,2.15
2019-04-27T13:11:45.985Z,2.40
2019-04-27T13:14:16.332Z,2.67
2019-04-27T13:16:45.722Z,2.00
2019-04-27T13:19:15.794Z,2.40
2019-04-27T13:21:44.424Z,2.10
2019-04-27T13:24:12.843Z,2.30
2019-04-27T13:26:41.343Z,2.17
2019-04-27T13:29:10.007Z,2.37
2019-04-27T13:31:38.763Z,2.15
2019-04-27T13:34:07.176Z,2.08
2019-04-27T13:36:36.815Z,1.80
2019-04-27T13:39:06.452Z,1.75
2019-04-27T13:41:35.918Z,2.00
2019-04-27T13:44:06.436Z,1.92
2019-04-27T13:46:36.451Z,2.10
2019-04-27T13:49:23.119Z,2.50
2019-04-27T13:51:57.525Z,2.58
2019-04-27T13:54:28.987Z,2.40
2019-04-27T13:56:56.399Z,2.70
2019-04-27T13:59:25.001Z,2.98
2019-04-27T14:01:53.736Z,2.30
2019-04-27T14:04:24.007Z,2.77
2019-04-27T14:06:52.694Z,2.45
2019-04-27T14:09:21.643Z,3.20
2019-04-27T14:11:51.699Z,2.75
2019-04-27T14:14:20.464Z,3.00
2019-04-27T14:16:48.882Z,2.12
2019-04-27T14:19:18.912Z,2.05
2019-04-27T14:21:49.034Z,1.80
2019-04-27T14:24:27.496Z,2.10
2019-04-27T14:26:48.561Z,1.60
2019-04-27T14:29:18.843Z,1.45
2019-04-27T14:31:47.856Z,1.62
2019-04-27T14:34:18.999Z,1.20
2019-04-27T14:36:48.910Z,1.40
2019-04-27T14:39:19.287Z,1.40
2019-04-27T14:41:49.128Z,1.37
2019-04-27T14:44:18.695Z,1.42
2019-04-27T14:46:48.537Z,1.55
2019-04-27T14:49:18.240Z,1.62
2019-04-27T14:51:48.608Z,1.90
2019-04-27T14:54:17.509Z,2.77
2019-04-27T14:56:46.008Z,1.60
2019-04-27T14:59:14.785Z,1.92
2019-04-27T15:01:43.680Z,2.27
2019-04-27T15:04:12.118Z,2.12
2019-04-27T15:06:40.552Z,2.40
2019-04-27T15:09:13.391Z,2.33
2019-04-27T15:11:40.131Z,2.40
2019-04-27T15:14:09.072Z,2.25
2019-04-27T15:16:42.136Z,2.42
2019-04-27T15:19:17.839Z,2.65
2019-04-27T15:21:56.368Z,2.95
2019-04-27T15:24:16.947Z,2.37
2019-04-27T15:26:45.624Z,2.40
2019-04-27T15:29:15.688Z,2.25
2019-04-27T15:31:45.759Z,2.00
2019-04-27T15:34:15.811Z,2.40
2019-04-27T15:36:52.851Z,2.58
2019-04-27T15:39:36.499Z,2.10
2019-04-27T15:42:09.829Z,2.40
2019-04-27T15:44:41.122Z,2.30
2019-04-27T15:47:11.941Z,2.00
2019-04-27T15:49:45.139Z,2.40
2019-04-27T15:52:09.775Z,2.30
2019-04-27T15:54:38.208Z,2.37
2019-04-27T15:57:10.573Z,2.17
2019-04-27T15:59:39.938Z,2.10
2019-04-27T16:02:12.272Z,2.42
2019-04-27T16:04:40.108Z,2.37
2019-04-27T16:07:10.205Z,2.33
2019-04-27T16:09:38.793Z,2.87
2019-04-27T16:12:12.681Z,2.83
2019-04-27T16:14:42.871Z,3.08
2019-04-27T16:17:11.401Z,2.70
2019-04-27T16:19:40.719Z,2.87
2019-04-27T16:22:11.811Z,2.80
2019-04-27T16:24:40.232Z,2.65
2019-04-27T16:27:09.036Z,2.70
2019-04-27T16:29:38.980Z,2.80
2019-04-27T16:32:11.311Z,2.40
2019-04-27T16:34:41.208Z,2.47
2019-04-27T16:37:09.872Z,2.60
2019-04-27T16:39:39.700Z,2.85
2019-04-27T16:42:14.111Z,2.72
2019-04-27T16:44:40.244Z,2.95
2019-04-27T16:47:12.567Z,3.12
2019-04-27T16:49:39.223Z,3.05
2019-04-27T16:52:11.555Z,3.00
2019-04-27T16:54:39.811Z,3.45
2019-04-27T16:57:10.381Z,3.85
2019-04-27T16:59:45.586Z,4.05
2019-04-27T17:02:08.855Z,3.70
2019-04-27T17:04:39.443Z,4.22
2019-04-27T17:07:11.241Z,4.33
2019-04-27T17:09:42.155Z,4.28
2019-04-27T17:12:10.063Z,4.40
2019-04-27T17:14:43.198Z,4.78
2019-04-27T17:17:25.576Z,4.80
2019-04-27T17:19:55.642Z,3.35
2019-04-27T17:22:24.432Z,1.77
2019-04-27T17:24:52.843Z,2.08
2019-04-27T17:27:28.948Z,2.02
2019-04-27T17:29:58.113Z,2.45
2019-04-27T17:32:30.367Z,2.67
2019-04-27T17:35:02.465Z,3.20
2019-04-27T17:37:31.421Z,2.67
2019-04-27T17:40:00.859Z,2.90
2019-04-27T17:42:30.626Z,2.87
2019-04-27T17:45:00.483Z,3.60
2019-04-27T17:47:29.974Z,3.47
2019-04-27T17:49:59.780Z,3.65
2019-04-27T17:52:28.565Z,3.87
2019-04-27T17:54:58.925Z,3.60
2019-04-27T17:57:30.198Z,4.20
2019-04-27T18:00:00.146Z,4.50
2019-04-27T18:02:29.287Z,4.55
2019-04-27T18:04:58.857Z,4.70
2019-04-27T18:07:30.044Z,5.08
2019-04-27T18:09:58.985Z,4.92
2019-04-27T18:12:28.557Z,5.40
2019-04-27T18:14:58.185Z,5.45
2019-04-27T18:17:28.844Z,5.22
2019-04-27T18:19:59.644Z,5.20
2019-04-27T18:22:32.176Z,4.92
2019-04-27T18:25:06.576Z,5.50
2019-04-27T18:27:42.001Z,6.17
2019-04-27T18:30:15.003Z,4.90
2019-04-27T18:32:42.547Z,4.85
2019-04-27T18:35:11.048Z,4.90
2019-04-27T18:37:39.767Z,5.72
2019-04-27T18:40:09.407Z,5.60
2019-04-27T18:42:38.585Z,5.22
2019-04-27T18:45:08.343Z,6.90
2019-04-27T18:47:40.230Z,9.50
2019-04-27T18:50:14.711Z,9.65
2019-04-27T18:52:47.677Z,7.20
2019-04-27T18:55:16.853Z,6.20
2019-04-27T18:57:46.017Z,6.05
2019-04-27T19:00:18.271Z,5.78
2019-04-27T19:02:48.263Z,6.08
2019-04-27T19:05:18.869Z,5.85
2019-04-27T19:07:48.715Z,8.10
2019-04-27T19:10:19.057Z,7.05
2019-04-27T19:12:48.361Z,6.33
2019-04-27T19:15:18.319Z,6.42
2019-04-27T19:17:49.001Z,7.37
2019-04-27T19:20:18.628Z,7.83
2019-04-27T19:22:49.073Z,6.53
2019-04-27T19:25:19.675Z,7.17
2019-04-27T19:28:05.460Z,7.05
2019-04-27T19:30:52.931Z,8.45
2019-04-27T19:33:21.355Z,8.20
2019-04-27T19:35:50.720Z,7.45
2019-04-27T19:38:20.104Z,8.58
2019-04-27T19:40:48.879Z,10.03
2019-04-27T19:43:18.124Z,9.78
2019-04-27T19:45:48.254Z,10.63
2019-04-27T19:48:18.184Z,10.58
2019-04-27T19:50:47.212Z,9.45
2019-04-27T19:53:15.636Z,8.38
2019-04-27T19:55:45.702Z,8.88
2019-04-27T19:58:19.507Z,9.48
2019-04-27T20:00:55.248Z,9.75
2019-04-27T20:03:31.636Z,10.08
2019-04-27T20:06:00.127Z,10.98
2019-04-27T20:08:30.219Z,12.15
2019-04-27T20:10:58.645Z,13.35
2019-04-27T20:13:28.991Z,15.43
2019-04-27T20:16:00.939Z,12.55
2019-04-27T20:18:29.507Z,13.25
2019-04-27T20:20:58.300Z,14.13
2019-04-27T20:23:26.732Z,17.40
2019-04-27T20:25:55.174Z,16.52
2019-04-27T20:28:23.680Z,17.05
2019-04-27T20:30:53.111Z,17.90
2019-04-27T20:33:23.540Z,19.50
2019-04-27T20:35:51.964Z,20.92
2019-04-27T20:38:21.583Z,20.30
2019-04-27T20:40:51.065Z,20.48
2019-04-27T20:43:21.371Z,21.70
2019-04-27T20:45:51.610Z,21.00
2019-04-27T20:48:22.127Z,21.42
2019-04-27T20:50:52.574Z,21.05
2019-04-27T20:53:23.041Z,21.62
2019-04-27T20:55:52.756Z,20.62
2019-04-27T20:58:22.137Z,21.27
2019-04-27T21:00:51.799Z,20.77
2019-04-27T21:03:32.512Z,21.02
2019-04-27T21:06:04.444Z,22.25
2019-04-27T21:08:34.831Z,20.82
2019-04-27T21:11:04.239Z,21.15
2019-04-27T21:13:33.583Z,21.10
2019-04-27T21:16:02.315Z,22.17
2019-04-27T21:18:31.842Z,22.70
2019-04-27T21:21:02.483Z,21.93
2019-04-27T21:23:31.322Z,23.05
2019-04-27T21:25:59.831Z,22.13
2019-04-27T21:28:28.752Z,20.80
2019-04-27T21:30:58.103Z,20.85
2019-04-27T21:33:26.854Z,18.32
2019-04-27T21:35:55.283Z,19.45
2019-04-27T21:38:24.680Z,29.20
2019-04-27T21:40:53.111Z,22.95
2019-04-27T21:43:21.754Z,21.25
2019-04-27T21:45:51.151Z,20.35
2019-04-27T21:48:21.193Z,18.42
2019-04-27T21:50:51.640Z,19.65
2019-04-27T21:53:38.051Z,19.45
2019-04-27T21:56:08.123Z,19.07
2019-04-27T21:58:36.552Z,16.55
2019-04-27T22:01:07.175Z,16.30
2019-04-27T22:03:39.681Z,15.28
2019-04-27T22:06:08.267Z,16.17
2019-04-27T22:08:37.628Z,15.58
2019-04-27T22:11:07.012Z,15.90
2019-04-27T22:13:35.452Z,17.23
2019-04-27T22:16:03.970Z,16.82
2019-04-27T22:18:32.428Z,17.45
2019-04-27T22:21:02.801Z,17.67
2019-04-27T22:23:35.865Z,17.10
2019-04-27T22:26:05.203Z,18.83
2019-04-27T22:28:46.137Z,19.12
2019-04-27T22:31:07.620Z,18.02
2019-04-27T22:33:36.042Z,18.15
2019-04-27T22:36:04.467Z,18.17
2019-04-27T22:38:32.901Z,20.60
2019-04-27T22:41:21.262Z,19.00
2019-04-27T22:43:58.023Z,19.65
2019-04-27T22:46:28.451Z,19.80
2019-04-27T22:48:57.136Z,19.27
2019-04-27T22:51:25.825Z,18.70
2019-04-27T22:53:55.204Z,20.62
2019-04-27T22:56:23.919Z,20.17
2019-04-27T22:59:11.469Z,20.32
2019-04-27T23:01:48.724Z,21.07
2019-04-27T23:04:38.484Z,24.47
2019-04-27T23:07:07.199Z,24.65
2019-04-27T23:09:37.558Z,25.23
2019-04-27T23:12:06.063Z,25.02
2019-04-27T23:14:34.993Z,25.60
2019-04-27T23:17:20.212Z,21.57
2019-04-27T23:19:51.069Z,21.40
2019-04-27T23:22:21.300Z,21.12
2019-04-27T23:24:51.852Z,21.68
2019-04-27T23:27:22.343Z,22.02
2019-04-27T23:29:51.564Z,23.15
2019-04-27T23:32:24.431Z,22.70
2019-04-27T23:34:52.855Z,24.30
2019-04-27T23:37:21.551Z,23.00
2019-04-27T23:39:50.239Z,23.02
2019-04-27T23:42:19.034Z,23.35
2019-04-27T23:44:47.463Z,25.15
2019-04-27T23:47:16.883Z,22.87
2019-04-27T23:49:45.640Z,23.02
2019-04-27T23:52:22.280Z,23.42
2019-04-27T23:54:51.149Z,24.50
2019-04-27T23:57:21.705Z,24.72
2019-04-27T23:59:51.523Z,26.07
